Time;durP1;ratioP1;P1;durP2;ratioP2;P2;SDS_P1;SDS_P2;PMS_P1;PMS_P2;Temp;Humidity;BMP_temperature;BMP_pressure;BME280_temperature;BME280_humidity;BME280_pressure;Samples;Min_cycle;Max_cycle;Signal;HPM_P1;HPM_P2
2022/07/24 00:00:15;;;;;;;;;;;15.80;99.90;;;;;;5097313;28;20370;-65
2022/07/24 00:02:41;;;;;;;;;;;15.80;99.90;;;;;;5078807;28;20294;-65
2022/07/24 00:05:07;;;;;;;;;;;15.80;99.90;;;;;;5096946;28;19912;-65
2022/07/24 00:07:34;;;;;;;;;;;15.70;99.90;;;;;;5096909;28;19908;-65
2022/07/24 00:10:00;;;;;;;;;;;15.70;99.90;;;;;;5097111;28;20011;-65
2022/07/24 00:12:25;;;;;;;;;;;15.60;99.90;;;;;;5097008;28;19952;-66
2022/07/24 00:14:51;;;;;;;;;;;15.60;99.90;;;;;;5096774;28;19909;-65
2022/07/24 00:17:16;;;;;;;;;;;15.50;99.90;;;;;;5096975;28;19912;-65
2022/07/24 00:19:42;;;;;;;;;;;15.50;99.90;;;;;;5096735;28;20024;-65
2022/07/24 00:22:07;;;;;;;;;;;15.50;99.90;;;;;;5096620;28;19908;-65
2022/07/24 00:24:33;;;;;;;;;;;15.40;99.90;;;;;;5096598;28;19912;-66
2022/07/24 00:27:00;;;;;;;;;;;15.40;99.90;;;;;;5096513;28;19908;-65
2022/07/24 00:29:26;;;;;;;;;;;15.30;99.90;;;;;;5096754;28;19912;-65
2022/07/24 00:31:52;;;;;;;;;;;15.20;99.90;;;;;;5096444;28;19956;-65
2022/07/24 00:34:17;;;;;;;;;;;15.20;99.90;;;;;;5061525;28;19915;-65
2022/07/24 00:36:43;;;;;;;;;;;15.20;99.90;;;;;;5096590;28;19908;-65
2022/07/24 00:39:09;;;;;;;;;;;15.10;99.90;;;;;;5096219;28;20358;-65
2022/07/24 00:41:34;;;;;;;;;;;15.10;99.90;;;;;;5096522;28;19908;-65
2022/07/24 00:44:03;;;;;;;;;;;15.10;99.90;;;;;;5096207;28;19908;-65
2022/07/24 00:46:28;;;;;;;;;;;15.00;99.90;;;;;;5096160;28;19915;-65
2022/07/24 00:48:54;;;;;;;;;;;15.00;99.90;;;;;;5096075;28;19951;-65
2022/07/24 00:51:19;;;;;;;;;;;14.90;99.90;;;;;;5096057;28;20044;-65
2022/07/24 00:53:45;;;;;;;;;;;14.90;99.90;;;;;;5096208;28;19961;-65
2022/07/24 00:56:12;;;;;;;;;;;14.90;99.90;;;;;;5096290;28;19915;-65
2022/07/24 00:58:37;;;;;;;;;;;14.90;99.90;;;;;;5096189;28;19915;-65
2022/07/24 01:01:03;;;;;;;;;;;14.80;99.90;;;;;;5095799;28;19908;-66
2022/07/24 01:03:28;;;;;;;;;;;14.90;99.90;;;;;;5095619;28;20007;-65
2022/07/24 01:05:54;;;;;;;;;;;14.90;99.90;;;;;;5077676;28;19908;-65
2022/07/24 01:08:20;;;;;;;;;;;14.80;99.90;;;;;;5095956;28;19970;-65
2022/07/24 01:10:45;;;;;;;;;;;14.90;99.90;;;;;;5095665;28;20023;-65
2022/07/24 01:13:11;;;;;;;;;;;14.90;99.90;;;;;;5095546;28;19963;-65
2022/07/24 01:15:36;;;;;;;;;;;14.90;99.90;;;;;;5095645;28;19919;-66
2022/07/24 01:18:02;;;;;;;;;;;14.80;99.90;;;;;;5095506;28;19909;-65
2022/07/24 01:20:28;;;;;;;;;;;14.80;99.90;;;;;;5095735;28;19915;-65
2022/07/24 01:22:53;;;;;;;;;;;14.80;99.90;;;;;;5095684;28;19908;-65
2022/07/24 01:25:19;;;;;;;;;;;14.80;99.90;;;;;;5095342;28;19947;-65
2022/07/24 01:27:44;;;;;;;;;;;14.80;99.90;;;;;;5095331;28;19908;-65
2022/07/24 01:30:10;;;;;;;;;;;14.80;99.90;;;;;;5095561;28;20374;-65
2022/07/24 01:32:35;;;;;;;;;;;14.70;99.90;;;;;;5095419;28;20007;-65
2022/07/24 01:35:01;;;;;;;;;;;14.70;99.90;;;;;;5095168;28;19912;-65
2022/07/24 01:37:26;;;;;;;;;;;14.80;99.90;;;;;;5095390;28;19912;-65
2022/07/24 01:39:52;;;;;;;;;;;14.70;99.90;;;;;;5095400;28;20413;-65
2022/07/24 01:42:19;;;;;;;;;;;14.70;99.90;;;;;;5094981;28;19908;-65
2022/07/24 01:44:45;;;;;;;;;;;14.70;99.90;;;;;;5095271;28;19908;-65
2022/07/24 01:47:10;;;;;;;;;;;14.70;99.90;;;;;;5095263;28;19915;-65
2022/07/24 01:49:36;;;;;;;;;;;14.70;99.90;;;;;;5094958;28;20045;-65
2022/07/24 01:52:01;;;;;;;;;;;14.70;99.90;;;;;;5094801;28;19924;-65
2022/07/24 01:54:27;;;;;;;;;;;14.70;99.90;;;;;;5095044;28;19924;-65
2022/07/24 01:56:52;;;;;;;;;;;14.70;99.90;;;;;;5094832;28;19915;-66
2022/07/24 01:59:18;;;;;;;;;;;14.70;99.90;;;;;;5095022;28;20362;-65
2022/07/24 02:01:43;;;;;;;;;;;14.70;99.90;;;;;;5094746;28;19908;-65
2022/07/24 02:04:09;;;;;;;;;;;14.70;99.90;;;;;;5094646;28;19930;-65
2022/07/24 02:06:34;;;;;;;;;;;14.70;99.90;;;;;;5094897;28;19956;-65
2022/07/24 02:09:00;;;;;;;;;;;14.60;99.90;;;;;;5076373;28;19931;-65
2022/07/24 02:11:25;;;;;;;;;;;14.60;99.90;;;;;;5076337;28;19995;-66
2022/07/24 02:13:52;;;;;;;;;;;14.60;99.90;;;;;;5093900;28;20004;-65
2022/07/24 02:16:18;;;;;;;;;;;14.50;99.90;;;;;;5094719;28;20361;-65
2022/07/24 02:18:43;;;;;;;;;;;14.50;99.90;;;;;;5094496;28;19955;-65
2022/07/24 02:21:08;;;;;;;;;;;14.40;99.90;;;;;;5094375;28;19908;-65
2022/07/24 02:23:34;;;;;;;;;;;;;;;;;;5094576;28;19909;-65
2022/07/24 02:26:00;;;;;;;;;;;;;;;;;;5094233;28;19915;-65
2022/07/24 02:28:26;;;;;;;;;;;;;;;;;;5094174;28;19908;-65
2022/07/24 02:30:52;;;;;;;;;;;;;;;;;;5094384;28;19916;-65
2022/07/24 02:33:17;;;;;;;;;;;14.30;99.90;;;;;;5094044;28;19912;-65
2022/07/24 02:35:43;;;;;;;;;;;14.40;99.90;;;;;;5094370;28;19909;-65
2022/07/24 02:38:08;;;;;;;;;;;14.40;99.90;;;;;;5094333;28;19915;-65
2022/07/24 02:40:34;;;;;;;;;;;14.40;99.90;;;;;;5094294;28;19908;-65
2022/07/24 02:42:59;;;;;;;;;;;14.40;99.90;;;;;;5093983;28;19951;-65
2022/07/24 02:45:25;;;;;;;;;;;14.40;99.90;;;;;;5076004;28;19908;-66
2022/07/24 02:47:52;;;;;;;;;;;14.40;99.90;;;;;;5094174;28;19957;-65
2022/07/24 02:50:18;;;;;;;;;;;14.40;99.90;;;;;;5093984;28;20267;-65
2022/07/24 02:52:44;;;;;;;;;;;14.40;99.90;;;;;;5093673;28;19943;-65
2022/07/24 02:55:09;;;;;;;;;;;14.40;99.90;;;;;;5094102;28;19909;-65
2022/07/24 02:57:35;;;;;;;;;;;14.30;99.90;;;;;;5076057;28;19909;-65
2022/07/24 03:00:01;;;;;;;;;;;14.40;99.90;;;;;;5093763;28;19909;-65
2022/07/24 03:02:26;;;;;;;;;;;14.40;99.90;;;;;;5094010;28;19919;-65
2022/07/24 03:04:52;;;;;;;;;;;14.30;99.90;;;;;;5093742;28;19915;-65
2022/07/24 03:07:17;;;;;;;;;;;14.30;99.90;;;;;;5093958;28;20014;-65
2022/07/24 03:09:43;;;;;;;;;;;14.30;99.90;;;;;;5093696;28;19914;-65
2022/07/24 03:12:08;;;;;;;;;;;14.30;99.90;;;;;;5093915;28;19908;-65
2022/07/24 03:14:34;;;;;;;;;;;14.20;99.90;;;;;;5093847;28;19955;-66
2022/07/24 03:16:59;;;;;;;;;;;14.30;99.90;;;;;;5075642;28;19915;-66
2022/07/24 03:19:25;;;;;;;;;;;14.20;99.90;;;;;;5093868;28;19908;-66
2022/07/24 03:21:50;;;;;;;;;;;14.30;99.90;;;;;;5093610;28;20323;-65
2022/07/24 03:24:16;;;;;;;;;;;14.30;99.90;;;;;;5093819;28;19960;-65
2022/07/24 03:26:41;;;;;;;;;;;14.30;99.90;;;;;;5097234;28;19947;-66
2022/07/24 03:29:07;;;;;;;;;;;14.30;99.90;;;;;;5097640;28;19957;-66
2022/07/24 03:31:32;;;;;;;;;;;14.20;99.90;;;;;;5097609;28;19952;-65
2022/07/24 03:33:58;;;;;;;;;;;14.20;99.90;;;;;;5097728;28;20421;-66
2022/07/24 03:36:23;;;;;;;;;;;14.20;99.90;;;;;;5079432;28;19994;-65
2022/07/24 03:38:49;;;;;;;;;;;14.20;99.90;;;;;;5097580;28;19959;-65
2022/07/24 03:41:14;;;;;;;;;;;14.20;99.90;;;;;;5079338;28;19951;-65
2022/07/24 03:43:40;;;;;;;;;;;14.20;99.90;;;;;;5097424;28;19915;-65
2022/07/24 03:46:05;;;;;;;;;;;14.20;99.90;;;;;;5079146;28;19915;-65
2022/07/24 03:48:31;;;;;;;;;;;14.20;99.90;;;;;;5097276;28;20007;-66
2022/07/24 03:50:56;;;;;;;;;;;14.20;99.90;;;;;;5096977;28;19912;-65
2022/07/24 03:53:22;;;;;;;;;;;14.30;99.90;;;;;;5097056;28;19919;-66
2022/07/24 03:55:47;;;;;;;;;;;14.30;99.90;;;;;;5097148;28;19915;-66
2022/07/24 03:58:13;;;;;;;;;;;14.30;99.90;;;;;;5097092;28;20332;-65
2022/07/24 04:00:38;;;;;;;;;;;14.30;99.90;;;;;;5097069;28;19915;-65
2022/07/24 04:03:04;;;;;;;;;;;14.30;99.90;;;;;;5096976;28;19957;-65
2022/07/24 04:05:29;;;;;;;;;;;14.40;99.90;;;;;;5097210;28;19908;-66
2022/07/24 04:07:55;;;;;;;;;;;14.40;99.90;;;;;;5096958;28;19959;-65
2022/07/24 04:10:21;;;;;;;;;;;14.50;99.90;;;;;;5096847;28;19916;-66
2022/07/24 04:12:46;;;;;;;;;;;14.60;99.90;;;;;;5096720;28;20394;-65
2022/07/24 04:15:12;;;;;;;;;;;14.60;99.90;;;;;;5096787;28;19916;-65
2022/07/24 04:17:38;;;;;;;;;;;14.70;99.90;;;;;;5096730;28;20282;-65
2022/07/24 04:20:03;;;;;;;;;;;14.80;99.90;;;;;;5078904;28;19912;-65
2022/07/24 04:22:29;;;;;;;;;;;14.80;99.90;;;;;;5096606;28;19915;-65
2022/07/24 04:24:54;;;;;;;;;;;14.90;99.90;;;;;;5096596;28;19967;-65
2022/07/24 04:27:20;;;;;;;;;;;15.10;99.90;;;;;;5096797;28;19908;-65
2022/07/24 04:29:45;;;;;;;;;;;15.20;99.90;;;;;;5096600;28;19911;-65
2022/07/24 04:32:11;;;;;;;;;;;15.30;99.90;;;;;;5096570;28;19908;-65
2022/07/24 04:34:36;;;;;;;;;;;15.50;99.90;;;;;;5096626;28;19966;-65
2022/07/24 04:37:02;;;;;;;;;;;15.60;99.90;;;;;;5095806;28;19909;-65
2022/07/24 04:39:27;;;;;;;;;;;15.70;99.90;;;;;;5096558;28;19915;-65
2022/07/24 04:41:53;;;;;;;;;;;15.90;99.90;;;;;;5096242;28;19908;-66
2022/07/24 04:44:18;;;;;;;;;;;16.30;99.90;;;;;;5096233;28;19908;-66
2022/07/24 04:46:44;;;;;;;;;;;17.20;99.90;;;;;;5096178;28;19908;-65
2022/07/24 04:49:10;;;;;;;;;;;18.30;99.90;;;;;;5096113;28;19908;-65
2022/07/24 04:51:35;;;;;;;;;;;19.20;99.90;;;;;;5096033;28;20370;-66
2022/07/24 04:54:01;;;;;;;;;;;20.40;99.90;;;;;;5095968;28;19952;-66
2022/07/24 04:56:30;;;;;;;;;;;21.20;99.90;;;;;;5095975;28;19912;-66
2022/07/24 04:58:55;;;;;;;;;;;22.00;99.90;;;;;;5096184;28;19908;-66
2022/07/24 05:01:21;;;;;;;;;;;22.70;99.90;;;;;;5095859;28;19908;-66
2022/07/24 05:03:46;;;;;;;;;;;23.10;99.90;;;;;;5095846;28;20412;-66
2022/07/24 05:06:12;;;;;;;;;;;22.90;99.90;;;;;;5095764;28;19936;-66
2022/07/24 05:08:37;;;;;;;;;;;22.90;99.90;;;;;;5095752;28;19908;-66
2022/07/24 05:11:02;;;;;;;;;;;22.70;99.90;;;;;;5095648;28;19916;-66
2022/07/24 05:13:28;;;;;;;;;;;22.00;99.90;;;;;;5095529;28;19912;-66
2022/07/24 05:15:55;;;;;;;;;;;21.70;99.90;;;;;;5095500;28;19915;-66
2022/07/24 05:18:20;;;;;;;;;;;21.20;99.90;;;;;;5095475;28;19915;-66
2022/07/24 05:20:45;;;;;;;;;;;20.70;99.90;;;;;;5095496;28;19909;-66
2022/07/24 05:23:11;;;;;;;;;;;20.10;99.90;;;;;;5095433;28;20393;-65
2022/07/24 05:25:36;;;;;;;;;;;19.70;99.90;;;;;;5095674;28;20003;-66
2022/07/24 05:28:02;;;;;;;;;;;19.50;99.90;;;;;;5095654;28;19955;-66
2022/07/24 05:30:28;;;;;;;;;;;19.60;99.90;;;;;;5095590;28;19909;-66
2022/07/24 05:32:53;;;;;;;;;;;19.80;99.90;;;;;;5077141;28;19954;-65
2022/07/24 05:35:19;;;;;;;;;;;19.90;99.90;;;;;;5095241;28;19908;-66
2022/07/24 05:37:44;;;;;;;;;;;20.30;99.90;;;;;;5095480;28;20277;-66
2022/07/24 05:40:10;;;;;;;;;;;21.00;99.90;;;;;;5095486;28;19908;-66
2022/07/24 05:42:36;;;;;;;;;;;21.80;99.90;;;;;;5095359;28;20358;-66
2022/07/24 05:45:01;;;;;;;;;;;23.30;99.90;;;;;;5095016;28;19934;-66
2022/07/24 05:47:27;;;;;;;;;;;24.60;99.90;;;;;;5076843;28;19973;-66
2022/07/24 05:49:52;;;;;;;;;;;25.30;99.90;;;;;;5094912;28;19912;-66
2022/07/24 05:52:18;;;;;;;;;;;25.60;99.90;;;;;;5094639;28;19963;-66
2022/07/24 05:54:43;;;;;;;;;;;26.00;99.90;;;;;;5094812;28;20386;-66
2022/07/24 05:57:08;;;;;;;;;;;25.80;99.90;;;;;;5094790;28;19963;-66
2022/07/24 05:59:34;;;;;;;;;;;25.40;99.90;;;;;;5094759;28;19915;-66
2022/07/24 06:02:03;;;;;;;;;;;25.00;99.90;;;;;;5095013;28;19990;-66
2022/07/24 06:04:29;;;;;;;;;;;24.70;99.90;;;;;;5094892;28;20018;-66
2022/07/24 06:06:55;;;;;;;;;;;24.80;99.90;;;;;;5094893;28;19908;-66
2022/07/24 06:09:20;;;;;;;;;;;24.90;99.90;;;;;;5094858;28;19915;-67
2022/07/24 06:11:46;;;;;;;;;;;25.40;99.90;;;;;;5094796;28;19994;-67
2022/07/24 06:14:11;;;;;;;;;;;26.30;99.90;;;;;;5094434;28;20279;-66
2022/07/24 06:16:37;;;;;;;;;;;28.20;98.10;;;;;;5094722;28;20008;-66
2022/07/24 06:19:02;;;;;;;;;;;28.50;96.70;;;;;;5094414;28;19915;-67
2022/07/24 06:21:27;;;;;;;;;;;27.90;96.60;;;;;;5094637;28;19956;-66
2022/07/24 06:23:53;;;;;;;;;;;27.90;96.50;;;;;;5094336;28;19908;-67
2022/07/24 06:26:18;;;;;;;;;;;28.60;94.80;;;;;;5094258;28;19958;-66
2022/07/24 06:28:44;;;;;;;;;;;29.20;94.50;;;;;;5094543;28;19943;-67
2022/07/24 06:31:09;;;;;;;;;;;28.80;92.60;;;;;;5094457;28;19908;-67
2022/07/24 06:33:35;;;;;;;;;;;29.30;91.90;;;;;;5094382;28;20366;-66
2022/07/24 06:36:00;;;;;;;;;;;28.90;92.10;;;;;;5094430;28;19908;-67
2022/07/24 06:38:26;;;;;;;;;;;28.10;93.70;;;;;;5094117;28;20294;-67
2022/07/24 06:40:51;;;;;;;;;;;27.90;93.90;;;;;;5094037;28;20294;-66
2022/07/24 06:43:17;;;;;;;;;;;28.30;93.40;;;;;;5094268;28;19919;-67
2022/07/24 06:45:43;;;;;;;;;;;28.60;92.80;;;;;;5093986;28;20385;-67
2022/07/24 06:48:08;;;;;;;;;;;28.70;93.80;;;;;;5093913;28;20000;-66
2022/07/24 06:50:34;;;;;;;;;;;28.50;93.20;;;;;;5094168;28;19912;-66
2022/07/24 06:53:00;;;;;;;;;;;28.50;92.60;;;;;;5093652;28;20390;-66
2022/07/24 06:55:25;;;;;;;;;;;29.10;92.70;;;;;;5093889;28;20354;-66
2022/07/24 06:57:51;;;;;;;;;;;30.30;90.70;;;;;;5094098;28;19915;-66
2022/07/24 07:00:16;;;;;;;;;;;29.10;90.80;;;;;;5093459;28;19912;-67
2022/07/24 07:02:42;;;;;;;;;;;30.60;90.00;;;;;;5094004;28;20333;-67
2022/07/24 07:05:08;;;;;;;;;;;30.60;88.10;;;;;;5093961;28;20382;-66
2022/07/24 07:07:35;;;;;;;;;;;29.60;89.80;;;;;;5093713;28;19909;-66
2022/07/24 07:10:01;;;;;;;;;;;30.40;88.70;;;;;;5093960;28;19943;-66
2022/07/24 07:12:26;;;;;;;;;;;30.20;88.70;;;;;;5093667;28;19908;-66
2022/07/24 07:14:52;;;;;;;;;;;30.40;87.40;;;;;;5093837;28;19953;-66
2022/07/24 07:17:17;;;;;;;;;;;30.40;86.10;;;;;;5093899;28;19920;-66
2022/07/24 07:19:43;;;;;;;;;;;30.60;85.50;;;;;;5093883;28;20320;-67
2022/07/24 07:22:09;;;;;;;;;;;31.50;82.00;;;;;;5093601;28;19908;-66
2022/07/24 07:24:34;;;;;;;;;;;32.00;79.30;;;;;;5093853;28;19958;-66
2022/07/24 07:27:00;;;;;;;;;;;31.40;80.00;;;;;;5093558;28;19915;-66
2022/07/24 07:29:25;;;;;;;;;;;30.10;80.60;;;;;;5093533;28;19977;-66
2022/07/24 07:31:51;;;;;;;;;;;29.80;84.30;;;;;;5093450;28;19973;-66
2022/07/24 07:34:16;;;;;;;;;;;30.10;82.10;;;;;;5075700;28;19959;-66
2022/07/24 07:36:42;;;;;;;;;;;30.60;82.50;;;;;;5075315;28;20278;-66
2022/07/24 07:39:07;;;;;;;;;;;30.70;81.50;;;;;;5093678;28;19912;-67
2022/07/24 07:41:33;;;;;;;;;;;30.80;80.10;;;;;;5093671;28;19915;-66
2022/07/24 07:43:58;;;;;;;;;;;30.80;80.20;;;;;;5093577;28;19908;-66
2022/07/24 07:46:24;;;;;;;;;;;31.30;78.70;;;;;;5093627;28;19968;-66
2022/07/24 07:48:49;;;;;;;;;;;30.50;79.80;;;;;;5093617;28;19957;-66
2022/07/24 07:51:15;;;;;;;;;;;30.60;78.90;;;;;;5071786;28;20011;-66
2022/07/24 07:53:41;;;;;;;;;;;30.10;82.30;;;;;;5073044;28;19935;-66
2022/07/24 07:56:06;;;;;;;;;;;30.70;78.50;;;;;;5073315;28;19908;-66
2022/07/24 07:58:32;;;;;;;;;;;32.20;76.40;;;;;;5073026;28;19916;-66
2022/07/24 08:00:58;;;;;;;;;;;31.70;76.70;;;;;;5073265;28;20328;-66
2022/07/24 08:03:23;;;;;;;;;;;30.80;74.90;;;;;;5073260;28;19913;-66
2022/07/24 08:05:49;;;;;;;;;;;30.00;79.80;;;;;;5073064;28;19912;-66
2022/07/24 08:08:14;;;;;;;;;;;30.40;78.70;;;;;;5073254;28;19963;-66
2022/07/24 08:10:40;;;;;;;;;;;30.60;76.80;;;;;;5073224;28;20371;-66
2022/07/24 08:13:06;;;;;;;;;;;30.50;75.90;;;;;;5074987;28;20366;-66
2022/07/24 08:15:31;;;;;;;;;;;30.70;76.00;;;;;;5076486;28;20255;-66
2022/07/24 08:17:57;;;;;;;;;;;30.90;75.10;;;;;;5076490;28;19919;-66
2022/07/24 08:20:23;;;;;;;;;;;30.30;75.90;;;;;;5076422;28;19909;-65
2022/07/24 08:22:49;;;;;;;;;;;30.10;79.50;;;;;;5076613;28;19964;-66
2022/07/24 08:25:14;;;;;;;;;;;30.20;75.40;;;;;;5075232;28;19941;-66
2022/07/24 08:27:40;;;;;;;;;;;30.60;76.90;;;;;;5076573;28;19909;-66
2022/07/24 08:30:05;;;;;;;;;;;30.80;76.80;;;;;;5076500;28;20016;-66
2022/07/24 08:32:31;;;;;;;;;;;30.90;77.00;;;;;;5076511;28;20278;-66
2022/07/24 08:34:57;;;;;;;;;;;29.90;75.60;;;;;;5076371;28;19950;-66
2022/07/24 08:37:22;;;;;;;;;;;30.00;78.30;;;;;;5076404;28;19908;-66
2022/07/24 08:39:47;;;;;;;;;;;29.50;78.30;;;;;;5076112;28;19908;-65
2022/07/24 08:42:13;;;;;;;;;;;29.60;78.80;;;;;;5076042;28;19915;-66
2022/07/24 08:44:39;;;;;;;;;;;29.30;79.20;;;;;;5076278;28;19908;-65
2022/07/24 08:47:08;;;;;;;;;;;29.40;78.70;;;;;;5076225;28;19909;-65
2022/07/24 08:49:35;;;;;;;;;;;29.60;80.20;;;;;;5076201;28;20338;-65
2022/07/24 08:52:02;;;;;;;;;;;29.70;79.20;;;;;;5085834;28;20002;-66
2022/07/24 08:54:27;;;;;;;;;;;29.70;79.10;;;;;;5096137;28;19916;-66
2022/07/24 08:56:53;;;;;;;;;;;30.30;78.60;;;;;;5077814;28;19909;-66
2022/07/24 08:59:19;;;;;;;;;;;30.80;76.60;;;;;;5095965;28;19951;-67
2022/07/24 09:01:45;;;;;;;;;;;30.90;76.60;;;;;;5095895;28;19908;-66
2022/07/24 09:04:30;;;;;;;;;;;30.20;76.10;;;;;;5096106;28;19916;-66
2022/07/24 09:06:57;;;;;;;;;;;30.30;78.20;;;;;;5095628;28;20039;-66
2022/07/24 09:09:22;;;;;;;;;;;31.10;74.80;;;;;;5095997;28;20370;-66
2022/07/24 09:11:48;;;;;;;;;;;30.20;75.50;;;;;;5095725;28;19908;-67
2022/07/24 09:14:44;;;;;;;;;;;30.50;77.50;;;;;;5095360;28;19958;-66
2022/07/24 09:17:08;;;;;;;;;;;30.50;77.70;;;;;;5095374;28;19963;-66
2022/07/24 09:19:54;;;;;;;;;;;31.20;75.60;;;;;;5095583;28;19999;-67
2022/07/24 09:22:36;;;;;;;;;;;30.60;75.90;;;;;;5095430;28;19912;-67
2022/07/24 09:25:04;;;;;;;;;;;30.50;76.30;;;;;;5095551;28;20007;-67
2022/07/24 09:27:30;;;;;;;;;;;30.00;76.80;;;;;;5095402;28;19957;-66
2022/07/24 09:29:55;;;;;;;;;;;30.90;78.70;;;;;;5095345;28;19911;-67
2022/07/24 09:32:22;;;;;;;;;;;31.30;75.80;;;;;;5095521;28;19908;-67
2022/07/24 09:34:50;;;;;;;;;;;31.30;77.80;;;;;;5095419;28;20276;-67
2022/07/24 09:37:16;;;;;;;;;;;31.30;75.30;;;;;;5095328;28;20003;-66
2022/07/24 09:39:42;;;;;;;;;;;30.40;76.40;;;;;;5077023;28;20550;-67
2022/07/24 09:42:07;;;;;;;;;;;30.00;78.70;;;;;;5095360;28;19915;-67
2022/07/24 09:44:34;;;;;;;;;;;30.40;78.80;;;;;;5095195;28;19964;-67
2022/07/24 09:47:04;;;;;;;;;;;31.20;76.60;;;;;;5095319;28;20378;-67
2022/07/24 09:49:30;;;;;;;;;;;31.60;76.00;;;;;;5095182;28;20403;-66
2022/07/24 09:54:50;;;;;;;;;;;31.50;75.00;;;;;;5071033;28;20302;-67
2022/07/24 09:57:17;;;;;;;;;;;30.80;76.80;;;;;;5070890;28;20333;-67
2022/07/24 09:59:45;;;;;;;;;;;31.40;75.20;;;;;;5071137;28;19916;-68
2022/07/24 10:02:12;;;;;;;;;;;32.50;73.90;;;;;;5071009;28;19913;-68
2022/07/24 10:04:40;;;;;;;;;;;31.10;75.40;;;;;;5071066;28;19944;-68
2022/07/24 10:07:08;;;;;;;;;;;31.00;77.30;;;;;;5070751;28;19913;-68
2022/07/24 10:09:33;;;;;;;;;;;30.60;75.80;;;;;;5070686;28;19909;-68
2022/07/24 10:11:59;;;;;;;;;;;30.40;75.70;;;;;;5070651;28;19916;-67
2022/07/24 10:14:25;;;;;;;;;;;30.50;76.70;;;;;;5070521;28;19961;-67
2022/07/24 10:17:01;;;;;;;;;;;30.40;78.40;;;;;;5070830;28;20000;-67
2022/07/24 10:19:28;;;;;;;;;;;30.50;76.60;;;;;;5070533;28;19912;-67
2022/07/24 10:21:55;;;;;;;;;;;31.00;76.60;;;;;;5070451;28;19916;-67
2022/07/24 10:24:35;;;;;;;;;;;30.50;75.70;;;;;;5070618;28;19913;-67
2022/07/24 10:27:03;;;;;;;;;;;30.30;76.20;;;;;;5070644;28;20256;-67
2022/07/24 10:29:28;;;;;;;;;;;30.80;74.10;;;;;;5070513;28;19946;-67
2022/07/24 10:31:55;;;;;;;;;;;30.90;74.20;;;;;;5070518;28;19909;-67
2022/07/24 10:37:06;;;;;;;;;;;30.80;75.80;;;;;;5091270;27;19912;-67
2022/07/24 10:39:52;;;;;;;;;;;31.10;74.70;;;;;;5091425;28;19961;-66
2022/07/24 10:42:17;;;;;;;;;;;31.00;73.30;;;;;;5091206;28;19915;-67
2022/07/24 10:44:44;;;;;;;;;;;30.60;73.50;;;;;;5089700;28;19912;-67
2022/07/24 10:47:13;;;;;;;;;;;31.10;74.10;;;;;;5091242;28;20370;-66
2022/07/24 10:49:47;;;;;;;;;;;30.50;74.20;;;;;;5090840;28;19991;-66
2022/07/24 10:52:29;;;;;;;;;;;29.90;75.40;;;;;;5091042;28;19912;-66
2022/07/24 10:55:14;;;;;;;;;;;30.60;76.10;;;;;;5089919;28;19912;-67
2022/07/24 10:58:00;;;;;;;;;;;31.00;74.60;;;;;;5090117;28;19908;-66
2022/07/24 11:03:05;;;;;;;;;;;30.10;75.20;;;;;;5090877;27;20389;-66
2022/07/24 11:05:34;;;;;;;;;;;30.30;74.60;;;;;;5091232;28;19912;-66
2022/07/24 11:08:18;;;;;;;;;;;30.10;76.80;;;;;;5091164;28;19908;-66
2022/07/24 11:10:44;;;;;;;;;;;30.80;74.90;;;;;;5091275;28;19909;-66
2022/07/24 11:13:29;;;;;;;;;;;30.20;74.10;;;;;;5091042;28;19912;-66
2022/07/24 11:16:13;;;;;;;;;;;30.10;73.40;;;;;;5090793;28;19912;-66
2022/07/24 11:18:39;;;;;;;;;;;30.40;73.20;;;;;;5091159;28;20355;-66
2022/07/24 11:21:05;;;;;;;;;;;30.50;72.80;;;;;;5090816;28;19916;-66
2022/07/24 11:23:31;;;;;;;;;;;30.50;73.20;;;;;;5123735;28;20003;-66
2022/07/24 11:26:20;;;;;;;;;;;30.80;74.20;;;;;;5091067;28;19915;-66
2022/07/24 11:29:06;;;;;;;;;;;30.50;73.20;;;;;;5090679;28;19908;-66
2022/07/24 11:31:31;;;;;;;;;;;30.60;72.60;;;;;;5090695;28;19908;-66
2022/07/24 11:33:58;;;;;;;;;;;30.50;73.20;;;;;;5090906;28;20412;-66
2022/07/24 11:36:23;;;;;;;;;;;30.40;73.00;;;;;;5090547;28;19909;-66
2022/07/24 11:38:50;;;;;;;;;;;30.80;73.80;;;;;;5090747;28;19965;-66
2022/07/24 11:41:15;;;;;;;;;;;30.70;69.10;;;;;;5090661;28;20319;-66
2022/07/24 11:43:56;;;;;;;;;;;30.40;70.80;;;;;;5090726;28;19912;-66
2022/07/24 11:46:39;;;;;;;;;;;30.80;69.30;;;;;;5090361;28;19909;-66
2022/07/24 11:49:06;;;;;;;;;;;30.50;70.80;;;;;;5090572;28;19920;-66
2022/07/24 11:51:32;;;;;;;;;;;30.70;71.30;;;;;;5090224;28;19944;-66
2022/07/24 11:53:57;;;;;;;;;;;30.40;72.30;;;;;;5090453;28;19909;-66
2022/07/24 11:56:23;;;;;;;;;;;30.80;71.00;;;;;;5088964;28;19915;-66
2022/07/24 11:58:49;;;;;;;;;;;30.80;70.90;;;;;;5090415;28;19991;-66
2022/07/24 12:01:22;;;;;;;;;;;31.20;70.30;;;;;;5095490;28;19970;-66
2022/07/24 12:04:03;;;;;;;;;;;31.20;70.10;;;;;;5110674;28;19909;-66
2022/07/24 12:06:29;;;;;;;;;;;30.60;68.80;;;;;;5110630;28;19908;-66
2022/07/24 12:09:04;;;;;;;;;;;30.40;72.30;;;;;;5110257;28;19961;-66
2022/07/24 12:11:32;;;;;;;;;;;30.30;72.90;;;;;;5110175;28;19908;-66
2022/07/24 12:13:59;;;;;;;;;;;30.40;70.00;;;;;;5099347;28;19908;-66
2022/07/24 12:16:26;;;;;;;;;;;30.30;70.10;;;;;;5096787;28;19960;-67
2022/07/24 12:18:51;;;;;;;;;;;30.50;72.50;;;;;;5096824;28;20347;-66
2022/07/24 12:21:18;;;;;;;;;;;30.80;69.50;;;;;;5096430;28;19912;-67
2022/07/24 12:23:45;;;;;;;;;;;31.00;70.20;;;;;;5096677;28;19908;-66
2022/07/24 12:26:10;;;;;;;;;;;31.30;71.60;;;;;;5096627;28;19908;-66
2022/07/24 12:28:36;;;;;;;;;;;30.60;69.00;;;;;;5096265;28;19909;-66
2022/07/24 12:31:06;;;;;;;;;;;30.70;67.60;;;;;;5096572;28;19995;-66
2022/07/24 12:33:33;;;;;;;;;;;30.80;70.40;;;;;;5096520;28;20366;-66
2022/07/24 12:36:00;;;;;;;;;;;30.70;69.20;;;;;;5096442;28;19908;-67
2022/07/24 12:38:30;;;;;;;;;;;30.70;70.70;;;;;;5096323;28;20385;-66
2022/07/24 12:41:06;;;;;;;;;;;30.80;68.80;;;;;;5095988;28;19908;-67
2022/07/24 12:43:31;;;;;;;;;;;30.50;69.30;;;;;;5096050;28;19998;-66
2022/07/24 12:46:12;;;;;;;;;;;30.60;68.70;;;;;;5096218;28;19947;-66
2022/07/24 12:48:38;;;;;;;;;;;30.50;69.40;;;;;;5077691;28;20378;-66
2022/07/24 12:51:09;;;;;;;;;;;30.50;67.50;;;;;;5096171;28;19908;-66
2022/07/24 12:53:36;;;;;;;;;;;30.60;69.50;;;;;;5095873;28;19919;-66
2022/07/24 12:56:10;;;;;;;;;;;30.60;67.80;;;;;;5095858;28;19912;-67
2022/07/24 12:58:52;;;;;;;;;;;30.60;68.50;;;;;;5077674;28;20024;-66
2022/07/24 13:01:19;;;;;;;;;;;30.60;68.40;;;;;;5095713;28;20386;-66
2022/07/24 13:04:00;;;;;;;;;;;30.70;68.70;;;;;;5095989;28;20305;-66
2022/07/24 13:06:33;;;;;;;;;;;30.80;68.60;;;;;;5095871;28;19915;-66
2022/07/24 13:08:59;;;;;;;;;;;30.80;67.70;;;;;;5095824;28;20426;-66
2022/07/24 13:11:24;;;;;;;;;;;30.80;67.60;;;;;;5095788;28;19959;-66
2022/07/24 13:13:50;;;;;;;;;;;30.70;68.70;;;;;;5095483;28;20310;-66
2022/07/24 13:16:15;;;;;;;;;;;31.20;68.30;;;;;;5095359;28;19908;-66
2022/07/24 13:18:40;;;;;;;;;;;31.50;66.60;;;;;;5095675;28;19915;-67
2022/07/24 13:21:06;;;;;;;;;;;31.60;68.30;;;;;;5095272;28;19972;-66
2022/07/24 13:23:31;;;;;;;;;;;31.20;66.00;;;;;;5095302;28;19914;-66
2022/07/24 13:25:57;;;;;;;;;;;30.80;67.50;;;;;;5094538;28;19909;-66
2022/07/24 13:28:22;;;;;;;;;;;30.50;67.00;;;;;;5095203;28;19951;-66
2022/07/24 13:30:48;;;;;;;;;;;30.50;68.90;;;;;;5077112;28;19908;-66
2022/07/24 13:33:13;;;;;;;;;;;30.70;68.20;;;;;;5076964;28;20371;-67
2022/07/24 13:35:39;;;;;;;;;;;30.50;68.10;;;;;;5095032;28;20001;-66
2022/07/24 13:38:04;;;;;;;;;;;30.80;67.90;;;;;;5095263;28;19919;-67
2022/07/24 13:40:30;;;;;;;;;;;31.20;68.10;;;;;;5094942;28;19908;-66
2022/07/24 13:42:55;;;;;;;;;;;31.10;65.70;;;;;;5094809;28;19912;-67
2022/07/24 13:45:22;;;;;;;;;;;30.80;66.70;;;;;;5094901;28;20007;-66
2022/07/24 13:47:47;;;;;;;;;;;30.70;66.50;;;;;;5095039;28;20431;-67
2022/07/24 13:50:13;;;;;;;;;;;31.00;67.10;;;;;;5094759;28;19908;-66
2022/07/24 13:52:38;;;;;;;;;;;30.90;65.20;;;;;;5094671;28;20290;-66
2022/07/24 13:55:04;;;;;;;;;;;30.80;66.20;;;;;;5094952;28;19970;-67
2022/07/24 13:57:29;;;;;;;;;;;30.80;66.40;;;;;;5094658;28;20289;-67
2022/07/24 13:59:55;;;;;;;;;;;30.60;66.10;;;;;;5094580;28;19912;-66
2022/07/24 14:02:20;;;;;;;;;;;30.70;66.90;;;;;;5076184;28;20336;-67
2022/07/24 14:04:46;;;;;;;;;;;31.10;66.30;;;;;;5094754;28;19909;-66
2022/07/24 14:07:12;;;;;;;;;;;31.10;65.90;;;;;;5094720;28;19911;-66
2022/07/24 14:09:37;;;;;;;;;;;31.10;67.60;;;;;;5094446;28;20341;-67
2022/07/24 14:12:04;;;;;;;;;;;31.10;66.40;;;;;;5094368;28;20024;-67
2022/07/24 14:14:29;;;;;;;;;;;31.30;67.30;;;;;;5094601;28;19908;-66
2022/07/24 14:16:55;;;;;;;;;;;31.20;64.50;;;;;;5094266;28;19909;-66
2022/07/24 14:19:21;;;;;;;;;;;30.90;66.50;;;;;;5094520;28;20003;-66
2022/07/24 14:21:47;;;;;;;;;;;31.00;66.70;;;;;;5094416;28;19955;-66
2022/07/24 14:24:14;;;;;;;;;;;31.20;65.70;;;;;;5094394;28;19920;-66